Winton Post Office, Australia
Current Conditions -  °F | °C
As of 8:00 PM on Tuesday 21 Oct 2014 (Local Time) from YLRE Reporting Station
Clear Clear  
Wind Chill: 81°   Ceiling: Unl
Heat Index: 81°   Visibility: 6mi
Dew Point: 39°   Wind: 10mph
Humidity: 23%   Direction: 80°E
Pressure: 30.09"   Gusts: NA
Location:  22.38°S, 143.03°E
Report Text: YLRE 211000Z 08009KT CAVOK 27/04 Q1019
Loading
Personal Weather Stations






























Interactive Weather Map
Tropical Storm Tracking
New forecast layout! Learn more

10-Day Weather Forecast

Advertisements
Track Severe Weather on mobile